Time;durP1;ratioP1;P1;durP2;ratioP2;P2;SDS_P1;SDS_P2;PMS_P1;PMS_P2;Temp;Humidity;BMP_temperature;BMP_pressure;BME280_temperature;BME280_humidity;BME280_pressure;Samples;Min_cycle;Max_cycle;Signal;HPM_P1;HPM_P2
2023/05/20 00:01:28;;;;;;;13.82;6.38;;;10.80;99.90;;;;;;4941706;28;20114;-84
2023/05/20 00:03:53;;;;;;;19.35;6.45;;;10.80;99.90;;;;;;4931152;29;20537;-84
2023/05/20 00:06:19;;;;;;;19.15;6.88;;;10.80;99.90;;;;;;4948945;28;20115;-82
2023/05/20 00:08:45;;;;;;;16.13;7.13;;;10.80;99.90;;;;;;4945437;28;20050;-82
2023/05/20 00:11:10;;;;;;;16.88;5.90;;;10.80;99.90;;;;;;4928899;29;20043;-81
2023/05/20 00:13:38;;;;;;;15.85;5.80;;;10.80;99.90;;;;;;4949574;29;20067;-83
2023/05/20 00:16:04;;;;;;;17.13;6.43;;;10.80;99.90;;;;;;4930651;29;20407;-82
2023/05/20 00:18:31;;;;;;;13.40;6.03;;;10.70;99.90;;;;;;4914084;29;20050;-81
2023/05/20 00:20:57;;;;;;;14.07;5.85;;;10.70;99.90;;;;;;4946243;28;20055;-82
2023/05/20 00:23:23;;;;;;;19.30;6.35;;;10.70;99.90;;;;;;4930416;29;20046;-82
2023/05/20 00:25:49;;;;;;;14.90;6.35;;;10.70;99.90;;;;;;4945060;28;20055;-82
2023/05/20 00:28:18;;;;;;;17.13;5.55;;;10.70;99.90;;;;;;4908927;29;20039;-82
2023/05/20 00:30:45;;;;;;;22.80;6.70;;;10.70;99.90;;;;;;4946228;28;20098;-80
2023/05/20 00:33:11;;;;;;;14.23;5.95;;;10.70;99.90;;;;;;4932122;28;20168;-83
2023/05/20 00:35:37;;;;;;;16.30;6.35;;;10.70;99.90;;;;;;4943829;28;20106;-82
2023/05/20 00:38:02;;;;;;;14.18;6.47;;;10.70;99.90;;;;;;4945465;28;20487;-82
2023/05/20 00:40:28;;;;;;;17.38;6.43;;;10.70;99.90;;;;;;4944000;28;20051;-82
2023/05/20 00:42:53;;;;;;;18.98;6.00;;;10.70;99.90;;;;;;4943617;28;20051;-83
2023/05/20 00:45:19;;;;;;;22.85;6.80;;;10.70;99.90;;;;;;4943777;28;20214;-84
2023/05/20 00:47:48;;;;;;;21.25;6.90;;;10.70;99.90;;;;;;4931197;29;20058;-82
2023/05/20 00:50:14;;;;;;;19.10;6.85;;;10.70;99.90;;;;;;4953488;28;20040;-82
2023/05/20 00:52:44;;;;;;;14.63;5.75;;;10.70;99.90;;;;;;4937633;28;20039;-83
2023/05/20 00:55:12;;;;;;;16.73;6.55;;;10.70;99.90;;;;;;4945989;28;20049;-83
2023/05/20 00:57:38;;;;;;;18.77;6.55;;;10.70;99.90;;;;;;4945263;29;20406;-83
2023/05/20 01:00:06;;;;;;;15.35;6.65;;;10.70;99.90;;;;;;4926753;28;20418;-82
2023/05/20 01:02:32;;;;;;;18.48;7.03;;;10.60;99.90;;;;;;4926931;28;20535;-83
2023/05/20 01:04:58;;;;;;;25.25;7.38;;;10.60;99.90;;;;;;4946091;28;20051;-84
2023/05/20 01:07:24;;;;;;;18.83;6.93;;;10.60;99.90;;;;;;4927760;29;20900;-84
2023/05/20 01:09:51;;;;;;;16.13;6.70;;;10.60;99.90;;;;;;4929438;29;20047;-83
2023/05/20 01:12:22;;;;;;;16.50;6.72;;;10.60;99.90;;;;;;4948366;28;20070;-84
2023/05/20 01:14:50;;;;;;;21.35;7.38;;;10.60;99.90;;;;;;4942537;28;20051;-84
2023/05/20 01:17:19;;;;;;;16.98;7.95;;;10.60;99.90;;;;;;4930009;28;20055;-84
2023/05/20 01:19:47;;;;;;;18.42;6.97;;;10.60;99.90;;;;;;4928121;29;20053;-84
2023/05/20 01:22:14;;;;;;;17.25;6.60;;;10.50;99.90;;;;;;4928466;29;20551;-84
2023/05/20 01:24:44;;;;;;;20.10;8.18;;;10.50;99.90;;;;;;4926612;29;20047;-85
2023/05/20 01:27:12;;;;;;;13.45;7.22;;;10.50;99.90;;;;;;4929960;29;20035;-84
2023/05/20 01:29:39;;;;;;;16.85;6.63;;;10.50;99.90;;;;;;4925442;28;20102;-86
2023/05/20 01:32:09;;;;;;;16.90;7.35;;;10.50;99.90;;;;;;4945331;28;20090;-84
2023/05/20 01:34:37;;;;;;;24.17;7.78;;;10.50;99.90;;;;;;4941668;28;20138;-85
2023/05/20 01:37:05;;;;;;;24.20;7.60;;;10.50;99.90;;;;;;4944783;28;20137;-85
2023/05/20 01:39:36;;;;;;;20.60;7.40;;;10.50;99.90;;;;;;4941731;28;20039;-85
2023/05/20 01:42:02;;;;;;;23.30;8.02;;;10.40;99.90;;;;;;4945728;28;20053;-85
2023/05/20 01:44:29;;;;;;;17.58;7.53;;;10.40;99.90;;;;;;4940705;28;20036;-86
2023/05/20 01:46:54;;;;;;;20.05;8.13;;;10.40;99.90;;;;;;4945287;28;20046;-85
2023/05/20 01:49:20;;;;;;;19.55;8.40;;;10.40;99.90;;;;;;4929532;29;20547;-86
2023/05/20 01:51:46;;;;;;;15.45;8.43;;;10.40;99.90;;;;;;4928847;29;20097;-88
2023/05/20 01:54:11;;;;;;;20.60;8.30;;;10.40;99.90;;;;;;4944392;28;20051;-86
2023/05/20 01:56:37;;;;;;;15.73;8.07;;;10.40;99.90;;;;;;4945166;29;20047;-85
2023/05/20 01:59:03;;;;;;;17.55;8.10;;;10.40;99.90;;;;;;4926602;29;20043;-86
2023/05/20 02:01:29;;;;;;;25.08;7.78;;;10.40;99.90;;;;;;4929307;29;20118;-85
2023/05/20 02:03:54;;;;;;;26.25;8.63;;;10.30;99.90;;;;;;4944804;28;20446;-85
2023/05/20 02:06:20;;;;;;;24.70;8.25;;;10.40;99.90;;;;;;4946599;28;20130;-84
2023/05/20 02:08:45;;;;;;;26.83;9.65;;;10.30;99.90;;;;;;4946487;28;20086;-85
2023/05/20 02:11:11;;;;;;;16.73;8.80;;;10.30;99.90;;;;;;4925967;28;20188;-85
2023/05/20 02:13:38;;;;;;;17.38;8.05;;;10.30;99.90;;;;;;4947320;28;20043;-86
2023/05/20 02:16:03;;;;;;;19.98;8.70;;;10.30;99.90;;;;;;4943513;28;20134;-86
2023/05/20 02:18:31;;;;;;;19.42;7.82;;;10.30;99.90;;;;;;4945024;28;20141;-85
2023/05/20 02:21:02;;;;;;;19.58;7.85;;;10.30;99.90;;;;;;4943658;28;20047;-86
2023/05/20 02:23:28;;;;;;;18.00;8.10;;;10.30;99.90;;;;;;4924508;29;20107;-87
2023/05/20 02:25:54;;;;;;;15.93;7.68;;;10.30;99.90;;;;;;4906782;29;20055;-85
2023/05/20 02:28:19;;;;;;;21.67;8.80;;;10.30;99.90;;;;;;4906125;29;20533;-84
2023/05/20 02:30:45;;;;;;;14.70;7.68;;;10.30;99.90;;;;;;4897697;29;20044;-85
2023/05/20 02:33:12;;;;;;;19.67;7.72;;;10.30;99.90;;;;;;4921431;29;20095;-86
2023/05/20 02:35:38;;;;;;;19.35;8.48;;;10.30;99.90;;;;;;4926309;29;20072;-85
2023/05/20 02:38:04;;;;;;;18.70;7.90;;;10.30;99.90;;;;;;4907401;29;20052;-86
2023/05/20 02:40:30;;;;;;;20.65;8.52;;;10.30;99.90;;;;;;4910531;29;20054;-87
2023/05/20 02:42:56;;;;;;;21.15;8.43;;;10.30;99.90;;;;;;4928964;29;20039;-85
2023/05/20 02:45:22;;;;;;;20.05;8.48;;;10.30;99.90;;;;;;4908611;29;20047;-84
2023/05/20 02:47:47;;;;;;;20.05;8.20;;;10.30;99.90;;;;;;4907475;29;20054;-85
2023/05/20 02:50:13;;;;;;;13.27;8.10;;;10.30;99.90;;;;;;4916967;29;20062;-85
2023/05/20 02:52:41;;;;;;;16.17;7.60;;;10.30;99.90;;;;;;4922456;29;20067;-85
2023/05/20 02:55:08;;;;;;;19.83;8.68;;;10.30;99.90;;;;;;4923104;29;20138;-85
2023/05/20 02:57:36;;;;;;;17.33;7.70;;;10.20;99.90;;;;;;4924568;29;20699;-86
2023/05/20 03:00:08;;;;;;;15.80;7.68;;;10.30;99.90;;;;;;4925026;29;20039;-84
2023/05/20 03:02:35;;;;;;;19.42;7.97;;;10.20;99.90;;;;;;4916117;29;20534;-86
2023/05/20 03:05:01;;;;;;;16.75;7.55;;;10.20;99.90;;;;;;4927651;29;20044;-85
2023/05/20 03:07:27;;;;;;;17.13;7.63;;;10.20;99.90;;;;;;4911100;29;20047;-86
2023/05/20 03:09:52;;;;;;;19.42;7.65;;;10.20;99.90;;;;;;4918218;29;20064;-84
2023/05/20 03:12:18;;;;;;;15.80;8.25;;;10.20;99.90;;;;;;4895879;29;20132;-84
2023/05/20 03:14:44;;;;;;;17.02;8.07;;;10.20;99.90;;;;;;4891062;29;20044;-85
2023/05/20 03:17:12;;;;;;;16.67;8.02;;;10.20;99.90;;;;;;4925797;29;20048;-85
2023/05/20 03:19:37;;;;;;;23.00;7.78;;;10.20;99.90;;;;;;4923645;29;20178;-84
2023/05/20 03:22:03;;;;;;;13.82;7.80;;;10.20;99.90;;;;;;4923675;29;20846;-85
2023/05/20 03:24:29;;;;;;;16.55;7.97;;;10.20;99.90;;;;;;4911612;29;20055;-85
2023/05/20 03:26:55;;;;;;;14.90;7.57;;;10.20;99.90;;;;;;4920997;29;20052;-85
2023/05/20 03:29:24;;;;;;;14.40;7.30;;;10.20;99.90;;;;;;4895591;29;20206;-85
2023/05/20 03:31:50;;;;;;;13.50;7.55;;;10.20;99.90;;;;;;4910126;29;20044;-85
2023/05/20 03:34:16;;;;;;;13.05;6.82;;;10.20;99.90;;;;;;4904513;29;20059;-86
2023/05/20 03:36:41;;;;;;;16.80;7.20;;;10.20;99.90;;;;;;4900873;29;20673;-85
2023/05/20 03:39:07;;;;;;;16.40;6.65;;;10.10;99.90;;;;;;4905890;29;20047;-87
2023/05/20 03:41:33;;;;;;;15.70;6.75;;;10.10;99.90;;;;;;4898209;29;20352;-77
2023/05/20 03:43:58;;;;;;;12.25;6.57;;;10.20;99.90;;;;;;5011322;23;20039;-86
2023/05/20 03:46:24;;;;;;;14.45;6.38;;;10.10;99.90;;;;;;4920798;29;20082;-86
2023/05/20 03:48:50;;;;;;;14.43;7.22;;;10.20;99.90;;;;;;4947504;29;20054;-86
2023/05/20 03:51:15;;;;;;;15.65;6.05;;;10.10;99.90;;;;;;4944700;29;20043;-84
2023/05/20 03:53:41;;;;;;;17.92;6.28;;;10.20;99.90;;;;;;4943965;28;20376;-85
2023/05/20 03:56:06;;;;;;;9.07;5.65;;;10.20;99.90;;;;;;4943640;29;20047;-85
2023/05/20 03:58:32;;;;;;;16.30;6.35;;;10.20;99.90;;;;;;4925209;29;20054;-85
2023/05/20 04:00:58;;;;;;;16.13;5.95;;;10.20;99.90;;;;;;4925224;29;20471;-85
2023/05/20 04:03:23;;;;;;;10.93;6.07;;;10.30;99.90;;;;;;4943454;29;20131;-86
2023/05/20 04:05:49;;;;;;;12.30;5.32;;;10.50;99.90;;;;;;4913217;29;20474;-84
2023/05/20 04:08:17;;;;;;;12.18;6.00;;;10.50;99.90;;;;;;4947073;29;20442;-83
2023/05/20 04:10:43;;;;;;;12.75;5.60;;;10.60;99.90;;;;;;4919722;29;20031;-84
2023/05/20 04:13:10;;;;;;;11.65;5.38;;;10.60;99.90;;;;;;4919687;29;20047;-83
2023/05/20 04:15:37;;;;;;;11.73;6.20;;;10.60;99.90;;;;;;4905024;29;20411;-84
2023/05/20 04:18:04;;;;;;;13.13;5.32;;;10.70;99.90;;;;;;4925575;29;20133;-85
2023/05/20 04:20:30;;;;;;;12.40;5.25;;;10.70;99.90;;;;;;4909064;29;20051;-85
2023/05/20 04:22:56;;;;;;;9.80;4.65;;;10.60;99.90;;;;;;4930902;29;20036;-88
2023/05/20 04:25:22;;;;;;;11.68;4.57;;;10.50;99.90;;;;;;4892255;29;20040;-86
2023/05/20 04:27:48;;;;;;;9.05;4.63;;;10.50;99.90;;;;;;4926397;29;20055;-87
2023/05/20 04:30:17;;;;;;;9.63;4.78;;;10.50;99.90;;;;;;4920891;29;20040;-87
2023/05/20 04:32:43;;;;;;;10.25;4.50;;;10.50;99.90;;;;;;4925725;29;20568;-88
2023/05/20 04:35:12;;;;;;;10.75;4.68;;;10.50;99.90;;;;;;4923950;29;20072;-89
2023/05/20 04:37:38;;;;;;;10.68;4.93;;;10.50;99.90;;;;;;4891312;29;20064;-91
2023/05/20 04:40:08;;;;;;;13.73;4.32;;;10.50;99.90;;;;;;4922706;29;20072;-84
2023/05/20 04:42:34;;;;;;;8.10;4.05;;;10.60;99.90;;;;;;4927790;29;20208;-92
2023/05/20 04:45:07;;;;;;;10.63;4.10;;;10.60;99.90;;;;;;4909515;29;20508;-79
2023/05/20 04:47:37;;;;;;;9.05;3.88;;;10.70;99.90;;;;;;4902123;29;20051;-79
2023/05/20 04:50:09;;;;;;;8.70;3.70;;;10.70;99.90;;;;;;4909387;29;20095;-79
2023/05/20 04:52:38;;;;;;;9.63;3.80;;;10.70;99.90;;;;;;4923773;29;20566;-79
2023/05/20 04:55:10;;;;;;;8.60;3.22;;;10.80;99.90;;;;;;4906163;29;20464;-78
2023/05/20 04:57:43;;;;;;;8.10;3.53;;;10.90;99.90;;;;;;4906922;29;20036;-78
2023/05/20 05:00:11;;;;;;;7.13;3.60;;;10.90;99.90;;;;;;4907209;29;20303;-78
2023/05/20 05:02:37;;;;;;;7.85;3.95;;;11.00;99.90;;;;;;4923081;29;20514;-79
2023/05/20 05:05:03;;;;;;;5.47;3.08;;;11.10;99.90;;;;;;4923698;29;20134;-79
2023/05/20 05:07:28;;;;;;;8.57;3.00;;;11.10;99.90;;;;;;4883213;29;20131;-78
2023/05/20 05:09:54;;;;;;;6.97;2.70;;;11.10;99.90;;;;;;4905941;29;20040;-78
2023/05/20 05:12:20;;;;;;;7.60;3.00;;;11.10;99.90;;;;;;4926899;29;20134;-79
2023/05/20 05:14:47;;;;;;;8.68;3.33;;;11.10;99.90;;;;;;4910488;29;20035;-80
2023/05/20 05:17:12;;;;;;;7.60;3.00;;;11.00;99.90;;;;;;4895938;29;20049;-79
2023/05/20 05:19:38;;;;;;;8.20;3.00;;;10.90;99.90;;;;;;4924214;29;20127;-78
2023/05/20 05:22:03;;;;;;;7.50;2.83;;;10.90;99.90;;;;;;4907194;29;20048;-79
2023/05/20 05:24:29;;;;;;;5.65;2.50;;;10.90;99.90;;;;;;4924036;29;20122;-78
2023/05/20 05:26:55;;;;;;;6.03;2.90;;;10.80;99.90;;;;;;4891285;29;20052;-77
2023/05/20 05:29:21;;;;;;;8.18;3.05;;;10.80;99.90;;;;;;4921411;29;20142;-78
2023/05/20 05:31:47;;;;;;;4.68;3.05;;;10.80;99.90;;;;;;4908403;29;20044;-77
2023/05/20 05:34:12;;;;;;;7.65;2.97;;;10.80;99.90;;;;;;4911391;29;20150;-78
2023/05/20 05:36:40;;;;;;;7.53;3.05;;;10.90;99.90;;;;;;4910949;29;20040;-78
2023/05/20 05:39:05;;;;;;;7.53;2.55;;;10.90;99.90;;;;;;4926729;29;20147;-78
2023/05/20 05:41:31;;;;;;;9.35;2.88;;;10.90;99.90;;;;;;4895028;29;20423;-79
2023/05/20 05:43:58;;;;;;;7.70;2.40;;;11.10;99.90;;;;;;4921295;29;20055;-79
2023/05/20 05:46:24;;;;;;;6.78;2.65;;;11.10;99.90;;;;;;4911984;29;20048;-78
2023/05/20 05:48:50;;;;;;;6.82;2.50;;;11.20;99.90;;;;;;4911014;29;20674;-78
2023/05/20 05:51:16;;;;;;;7.53;2.42;;;11.30;99.90;;;;;;4923862;29;20043;-77
2023/05/20 05:53:42;;;;;;;8.13;2.17;;;11.50;99.90;;;;;;4925869;29;20044;-79
2023/05/20 05:56:08;;;;;;;5.32;2.50;;;11.60;99.90;;;;;;4893366;29;20048;-79
2023/05/20 05:58:34;;;;;;;7.07;2.50;;;11.80;99.90;;;;;;4929695;29;20106;-78
2023/05/20 06:00:59;;;;;;;4.13;2.20;;;12.00;99.90;;;;;;4921755;29;21862;-79
2023/05/20 06:03:25;;;;;;;4.82;2.30;;;12.30;99.90;;;;;;4920011;29;20067;-79
2023/05/20 06:05:51;;;;;;;4.85;2.15;;;12.40;99.90;;;;;;4923106;29;20040;-79
2023/05/20 06:08:17;;;;;;;5.47;2.28;;;12.50;99.90;;;;;;4923785;29;20425;-79
2023/05/20 06:10:49;;;;;;;4.03;2.30;;;12.50;99.90;;;;;;4903824;29;20048;-79
2023/05/20 06:13:15;;;;;;;5.90;2.40;;;12.60;99.90;;;;;;4907309;29;20042;-80
2023/05/20 06:15:41;;;;;;;5.10;2.13;;;12.70;99.90;;;;;;4923159;29;20504;-78
2023/05/20 06:18:07;;;;;;;4.30;1.98;;;12.90;99.90;;;;;;4910107;29;20052;-79
2023/05/20 06:20:33;;;;;;;5.53;2.20;;;13.10;99.90;;;;;;4907312;29;20043;-79
2023/05/20 06:22:58;;;;;;;5.18;2.20;;;13.20;99.90;;;;;;4923752;29;20055;-78
2023/05/20 06:25:24;;;;;;;4.03;2.20;;;13.40;99.90;;;;;;4865197;29;20052;-79
2023/05/20 06:27:50;;;;;;;4.80;2.63;;;13.50;99.90;;;;;;4912218;29;20040;-79
2023/05/20 06:30:16;;;;;;;5.15;1.90;;;13.70;99.90;;;;;;4916107;29;20335;-79
2023/05/20 06:32:42;;;;;;;5.28;2.30;;;13.80;99.90;;;;;;4889739;29;20493;-81
2023/05/20 06:35:08;;;;;;;3.83;1.85;;;14.00;99.90;;;;;;4906937;29;20381;-80
2023/05/20 06:37:34;;;;;;;4.32;1.88;;;14.20;99.90;;;;;;4907325;29;20043;-81
2023/05/20 06:40:00;;;;;;;5.45;1.70;;;14.20;99.90;;;;;;4904627;29;20043;-83
2023/05/20 06:42:25;;;;;;;5.50;1.92;;;14.30;99.90;;;;;;4905698;29;20044;-82
2023/05/20 06:44:51;;;;;;;5.18;2.00;;;14.40;99.90;;;;;;4912182;29;20044;-83
2023/05/20 06:47:18;;;;;;;7.00;2.08;;;14.40;99.90;;;;;;4881507;29;20132;-82
2023/05/20 06:49:47;;;;;;;4.03;1.77;;;14.60;99.90;;;;;;4905400;29;20484;-82
2023/05/20 06:52:12;;;;;;;4.78;1.83;;;14.70;99.90;;;;;;4902803;29;20408;-81
2023/05/20 06:54:40;;;;;;;6.20;2.05;;;14.90;99.90;;;;;;4896598;29;20048;-81
2023/05/20 06:57:07;;;;;;;5.70;1.95;;;15.00;99.90;;;;;;4889633;29;20048;-82
2023/05/20 06:59:37;;;;;;;3.95;1.70;;;15.20;99.90;;;;;;4904117;29;20111;-83
2023/05/20 07:02:03;;;;;;;4.97;1.70;;;15.30;99.90;;;;;;4885704;29;20116;-81
2023/05/20 07:04:29;;;;;;;3.88;1.58;;;15.50;99.90;;;;;;4902707;29;20056;-80
2023/05/20 07:06:55;;;;;;;3.10;1.55;;;15.60;99.90;;;;;;4890263;29;20052;-81
2023/05/20 07:09:20;;;;;;;3.78;1.52;;;15.70;99.90;;;;;;4873614;29;20064;-82
2023/05/20 07:11:46;;;;;;;4.63;1.65;;;15.80;99.90;;;;;;4874989;29;20056;-81
2023/05/20 07:14:12;;;;;;;4.35;1.58;;;16.00;99.90;;;;;;4889420;29;20411;-79
2023/05/20 07:16:37;;;;;;;3.35;1.85;;;16.10;99.90;;;;;;4869499;29;20055;-78
2023/05/20 07:19:03;;;;;;;3.42;1.80;;;16.30;99.90;;;;;;4892143;29;20053;-79
2023/05/20 07:21:29;;;;;;;3.72;1.33;;;16.40;99.90;;;;;;4879560;29;20055;-81
2023/05/20 07:23:58;;;;;;;4.90;1.60;;;16.50;99.90;;;;;;4903425;29;20123;-80
2023/05/20 07:26:24;;;;;;;4.22;1.63;;;16.60;99.90;;;;;;4900404;29;20472;-81
2023/05/20 07:28:50;;;;;;;5.15;1.58;;;16.60;99.90;;;;;;4916854;29;20798;-79
2023/05/20 07:31:16;;;;;;;4.50;1.83;;;16.80;99.90;;;;;;4888190;29;20037;-81
2023/05/20 07:33:41;;;;;;;4.28;1.88;;;16.90;99.90;;;;;;4876765;29;20444;-82
2023/05/20 07:36:07;;;;;;;2.88;1.60;;;17.00;99.90;;;;;;4893341;29;20117;-80
2023/05/20 07:38:33;;;;;;;4.18;1.50;;;17.00;99.90;;;;;;4915902;29;20520;-81
2023/05/20 07:40:58;;;;;;;4.28;1.63;;;17.00;99.90;;;;;;4910444;29;20111;-81
2023/05/20 07:43:24;;;;;;;5.22;1.58;;;17.10;99.90;;;;;;4924732;29;20546;-80
2023/05/20 07:45:49;;;;;;;3.67;1.90;;;17.10;99.90;;;;;;4912818;29;20491;-83
2023/05/20 07:48:15;;;;;;;5.63;1.75;;;17.20;99.90;;;;;;4904175;29;20052;-82
2023/05/20 07:50:41;;;;;;;4.78;1.65;;;17.20;99.90;;;;;;4914887;29;20131;-82
2023/05/20 07:53:07;;;;;;;5.38;1.80;;;17.20;99.90;;;;;;4912008;29;20039;-81
2023/05/20 07:55:34;;;;;;;8.15;1.92;;;17.30;99.90;;;;;;4926554;29;20039;-82
2023/05/20 07:57:59;;;;;;;3.65;1.60;;;17.40;99.90;;;;;;4921861;29;20563;-82
2023/05/20 08:00:25;;;;;;;3.67;1.80;;;17.40;99.90;;;;;;4895091;29;20138;-81
2023/05/20 08:02:51;;;;;;;5.22;1.50;;;17.50;99.90;;;;;;4904772;29;20135;-84
2023/05/20 08:05:17;;;;;;;3.63;1.60;;;17.40;99.90;;;;;;4913176;29;20491;-81
2023/05/20 08:07:42;;;;;;;6.05;2.22;;;17.50;99.90;;;;;;4930235;29;20110;-83
2023/05/20 08:10:08;;;;;;;4.00;1.63;;;17.50;99.90;;;;;;4901071;29;20053;-82
2023/05/20 08:12:34;;;;;;;7.20;1.90;;;17.60;99.90;;;;;;4923530;29;20459;-81
2023/05/20 08:15:00;;;;;;;3.67;1.92;;;17.80;99.90;;;;;;4926473;29;20043;-81
2023/05/20 08:17:25;;;;;;;4.00;1.75;;;17.90;99.90;;;;;;4897634;29;20048;-81
2023/05/20 08:19:51;;;;;;;6.28;1.77;;;18.10;99.90;;;;;;4913569;29;20036;-83
2023/05/20 08:22:16;;;;;;;10.13;2.88;;;18.20;99.90;;;;;;4929438;29;20420;-82
2023/05/20 08:24:42;;;;;;;4.32;1.80;;;18.20;99.90;;;;;;4913501;29;20048;-82
2023/05/20 08:27:08;;;;;;;5.93;1.85;;;18.10;99.90;;;;;;4919173;29;20110;-80
2023/05/20 08:29:33;;;;;;;5.45;2.03;;;18.10;99.90;;;;;;4916007;29;20048;-82
2023/05/20 08:31:59;;;;;;;7.20;2.17;;;18.10;99.90;;;;;;4908738;29;20040;-83
2023/05/20 08:34:25;;;;;;;5.22;1.77;;;18.10;99.90;;;;;;4916313;29;20040;-82
2023/05/20 08:36:50;;;;;;;5.43;1.83;;;18.20;99.90;;;;;;4926265;29;20043;-82
2023/05/20 08:39:16;;;;;;;4.72;1.60;;;18.30;99.90;;;;;;4914334;29;20439;-81
2023/05/20 08:41:42;;;;;;;4.78;1.75;;;18.30;99.90;;;;;;4908582;29;20146;-81
2023/05/20 08:44:11;;;;;;;7.05;1.75;;;18.40;99.90;;;;;;4931814;29;20044;-80
2023/05/20 08:46:39;;;;;;;4.85;2.13;;;18.50;99.90;;;;;;4930194;29;20041;-84
2023/05/20 08:49:05;;;;;;;3.80;1.63;;;18.40;99.90;;;;;;4929281;29;20386;-82
2023/05/20 08:51:32;;;;;;;4.20;1.80;;;18.40;99.90;;;;;;4914622;29;20047;-84
2023/05/20 08:54:02;;;;;;;3.58;1.48;;;18.40;99.90;;;;;;4933223;29;20047;-83
2023/05/20 08:56:27;;;;;;;8.15;1.55;;;18.50;99.90;;;;;;4929743;29;20051;-81
2023/05/20 08:58:53;;;;;;;3.38;1.42;;;18.60;99.90;;;;;;4932968;29;20054;-82
2023/05/20 09:01:24;;;;;;;5.35;1.80;;;18.70;99.90;;;;;;4925710;29;20644;-83
2023/05/20 09:03:49;;;;;;;4.65;1.58;;;18.80;99.90;;;;;;4912473;29;20036;-81
2023/05/20 09:06:19;;;;;;;4.15;1.80;;;18.80;99.90;;;;;;4913101;29;20611;-82
2023/05/20 09:08:51;;;;;;;4.30;1.90;;;18.70;99.90;;;;;;4913381;29;20068;-84
2023/05/20 09:11:17;;;;;;;6.57;1.90;;;18.70;99.90;;;;;;4914133;29;20048;-81
2023/05/20 09:13:43;;;;;;;5.45;1.58;;;18.70;99.90;;;;;;4930823;29;20499;-82
2023/05/20 09:16:10;;;;;;;6.32;1.90;;;18.70;99.90;;;;;;4912377;29;20047;-82
2023/05/20 09:18:38;;;;;;;5.68;2.05;;;18.70;99.90;;;;;;4914293;29;20445;-82
2023/05/20 09:21:08;;;;;;;5.35;1.75;;;18.60;99.90;;;;;;4893080;29;20036;-82
2023/05/20 09:23:37;;;;;;;6.22;1.60;;;18.70;99.90;;;;;;4929829;29;20555;-84
2023/05/20 09:26:03;;;;;;;7.03;1.60;;;18.70;99.90;;;;;;4919017;29;20043;-82
2023/05/20 09:28:29;;;;;;;4.05;1.67;;;18.80;99.90;;;;;;4930816;29;20052;-82
2023/05/20 09:30:58;;;;;;;7.20;1.55;;;18.60;99.90;;;;;;4897676;29;20466;-79
2023/05/20 09:33:30;;;;;;;4.38;1.75;;;18.80;99.90;;;;;;4907950;29;20085;-79
2023/05/20 09:36:03;;;;;;;5.37;1.70;;;19.00;99.90;;;;;;4923153;29;20411;-81
2023/05/20 09:38:36;;;;;;;6.15;2.00;;;19.00;99.90;;;;;;4913593;29;20520;-79
2023/05/20 09:41:10;;;;;;;;;;;19.00;99.90;;;;;;4915893;29;20055;-80
2023/05/20 09:43:36;;;;;;;3.65;1.77;;;19.00;99.90;;;;;;4915909;29;19949;-80
2023/05/20 09:46:04;;;;;;;4.70;1.67;;;19.00;99.90;;;;;;4924508;29;20492;-82
2023/05/20 09:48:30;;;;;;;5.82;2.03;;;18.90;99.90;;;;;;4900859;29;20122;-80
2023/05/20 09:50:57;;;;;;;4.53;1.83;;;19.00;99.90;;;;;;4925460;29;20158;-79
2023/05/20 09:53:31;;;;;;;7.07;1.95;;;19.20;99.90;;;;;;4915158;29;20040;-81
2023/05/20 09:55:57;;;;;;;5.63;1.40;;;19.10;99.90;;;;;;4901543;29;20476;-80
2023/05/20 09:58:24;;;;;;;5.35;2.10;;;19.10;99.90;;;;;;4924705;29;20414;-79
2023/05/20 10:00:52;;;;;;;5.22;1.73;;;19.10;99.90;;;;;;4905002;29;20036;-82
2023/05/20 10:03:21;;;;;;;5.32;2.20;;;19.20;99.90;;;;;;4908026;29;20412;-81
2023/05/20 10:06:26;;;;;;;5.40;1.95;;;19.10;99.90;;;;;;4905478;29;20079;-81
2023/05/20 10:09:06;;;;;;;8.57;2.25;;;19.30;99.90;;;;;;4925901;29;20054;-79
2023/05/20 10:11:57;;;;;;;3.95;1.65;;;19.50;99.90;;;;;;4925822;28;20049;-82
2023/05/20 10:14:29;;;;;;;14.18;2.05;;;19.60;99.90;;;;;;4911313;29;20111;-80
2023/05/20 10:17:32;;;;;;;5.57;1.95;;;19.60;99.90;;;;;;4917757;29;20054;-82
2023/05/20 10:19:58;;;;;;;6.75;2.08;;;19.60;99.90;;;;;;4907855;29;20650;-80
2023/05/20 10:22:28;;;;;;;5.68;2.25;;;19.50;99.90;;;;;;4935503;29;20075;-79
2023/05/20 10:25:08;;;;;;;5.80;2.30;;;19.50;99.90;;;;;;4931026;29;20075;-81
2023/05/20 10:27:44;;;;;;;4.28;1.77;;;19.60;99.90;;;;;;4928615;29;20086;-83
2023/05/20 10:30:18;;;;;;;6.40;2.00;;;19.70;99.90;;;;;;4914060;29;20050;-81
2023/05/20 10:32:56;;;;;;;3.17;1.90;;;19.60;99.90;;;;;;4923977;29;20072;-81
2023/05/20 10:35:25;;;;;;;5.82;2.10;;;19.40;99.90;;;;;;4923147;29;20047;-81
2023/05/20 10:37:53;;;;;;;9.10;2.20;;;19.50;99.90;;;;;;4927931;29;20055;-81
2023/05/20 10:40:20;;;;;;;6.35;2.35;;;19.50;99.90;;;;;;4891878;29;20047;-80
2023/05/20 10:42:47;;;;;;;9.40;2.78;;;19.40;99.90;;;;;;4898373;29;20035;-80
2023/05/20 10:45:24;;;;;;;8.15;2.22;;;19.60;99.90;;;;;;4897201;29;20203;-87
2023/05/20 10:47:57;;;;;;;6.15;2.10;;;19.60;99.90;;;;;;4917622;29;20056;-79
2023/05/20 10:50:27;;;;;;;6.22;2.50;;;19.60;99.90;;;;;;4904325;29;20048;-80
2023/05/20 10:52:54;;;;;;;4.82;2.28;;;19.70;99.90;;;;;;4906309;29;20040;-81
2023/05/20 10:55:21;;;;;;;6.47;2.47;;;19.70;99.90;;;;;;4918487;29;20050;-81
2023/05/20 10:57:47;;;;;;;8.18;2.47;;;19.70;99.90;;;;;;4906871;29;20051;-82
2023/05/20 11:00:17;;;;;;;8.57;2.40;;;19.60;99.90;;;;;;4902938;29;20098;-81
2023/05/20 11:02:44;;;;;;;7.03;2.17;;;19.70;99.90;;;;;;4906031;29;20594;-81
2023/05/20 11:05:11;;;;;;;7.75;2.15;;;19.70;99.90;;;;;;4895315;29;20041;-83
2023/05/20 11:07:37;;;;;;;7.00;2.60;;;19.70;99.90;;;;;;4892325;29;20107;-82
2023/05/20 11:10:08;;;;;;;8.88;2.50;;;19.60;99.90;;;;;;4907363;29;20512;-81
2023/05/20 11:12:33;;;;;;;5.88;2.13;;;19.50;99.90;;;;;;4910131;29;20055;-81
2023/05/20 11:15:00;;;;;;;9.95;2.30;;;19.60;99.90;;;;;;4921850;29;20063;-81
2023/05/20 11:17:27;;;;;;;8.90;2.15;;;19.50;99.90;;;;;;4924350;29;20062;-87
2023/05/20 11:19:52;;;;;;;6.07;2.22;;;19.20;99.90;;;;;;4911699;29;20048;-85
2023/05/20 11:22:18;;;;;;;6.32;2.35;;;19.20;99.90;;;;;;4920847;29;20068;-84
2023/05/20 11:24:44;;;;;;;7.43;2.53;;;19.30;99.90;;;;;;4902372;29;20086;-82
2023/05/20 11:27:12;;;;;;;8.48;2.72;;;19.30;99.90;;;;;;4916881;29;20040;-82
2023/05/20 11:29:39;;;;;;;6.13;2.15;;;19.40;99.90;;;;;;4913792;29;20578;-81
2023/05/20 11:32:06;;;;;;;9.15;2.58;;;19.30;99.90;;;;;;4924441;29;20074;-81
2023/05/20 11:34:36;;;;;;;7.38;2.38;;;19.40;99.90;;;;;;4902581;29;20512;-82
2023/05/20 11:37:07;;;;;;;7.13;2.47;;;19.60;99.90;;;;;;4923029;29;20044;-80
2023/05/20 11:39:33;;;;;;;6.10;2.25;;;19.80;99.90;;;;;;4912555;29;20047;-81
2023/05/20 11:41:59;;;;;;;6.95;2.42;;;19.80;99.90;;;;;;4912833;29;20399;-81
2023/05/20 11:44:25;;;;;;;8.45;2.80;;;19.70;99.90;;;;;;4928792;29;20463;-83
2023/05/20 11:46:50;;;;;;;9.43;2.58;;;19.60;99.90;;;;;;4884594;29;20048;-83
2023/05/20 11:49:16;;;;;;;8.70;3.00;;;19.90;99.90;;;;;;4922530;29;20134;-81
2023/05/20 11:51:43;;;;;;;6.20;2.20;;;19.80;99.90;;;;;;4923872;29;20058;-81
2023/05/20 11:54:09;;;;;;;6.68;2.40;;;19.70;99.90;;;;;;4903850;29;20044;-81
2023/05/20 11:56:41;;;;;;;5.65;2.53;;;19.60;99.90;;;;;;4917987;29;20096;-83
2023/05/20 11:59:09;;;;;;;7.90;3.13;;;19.60;99.90;;;;;;4894691;29;20420;-83
2023/05/20 12:01:39;;;;;;;6.20;2.72;;;19.50;99.90;;;;;;4907446;29;20227;-82
2023/05/20 12:04:08;;;;;;;8.05;2.60;;;19.40;99.90;;;;;;4907785;29;20138;-81
2023/05/20 12:06:36;;;;;;;8.82;3.10;;;19.50;99.90;;;;;;4927834;29;20051;-82
2023/05/20 12:09:05;;;;;;;8.60;2.63;;;19.70;99.90;;;;;;4905311;29;20115;-83
2023/05/20 12:11:35;;;;;;;9.15;2.67;;;19.60;99.90;;;;;;4928254;29;20047;-83
2023/05/20 12:14:03;;;;;;;8.48;3.10;;;19.80;99.90;;;;;;4925081;29;20088;-80
2023/05/20 12:16:31;;;;;;;9.18;2.67;;;19.90;99.90;;;;;;4912359;29;20052;-82
2023/05/20 12:18:57;;;;;;;7.45;2.60;;;19.80;99.90;;;;;;4910495;29;20496;-81
2023/05/20 12:21:23;;;;;;;8.85;2.50;;;19.80;99.90;;;;;;4909758;29;20130;-82
2023/05/20 12:23:49;;;;;;;7.15;2.90;;;19.90;99.90;;;;;;4917039;29;20081;-82
2023/05/20 12:26:15;;;;;;;12.18;3.60;;;19.80;99.90;;;;;;4887889;29;20492;-81
2023/05/20 12:28:41;;;;;;;8.65;2.88;;;19.90;99.90;;;;;;4910082;29;20040;-82
2023/05/20 12:31:06;;;;;;;11.30;2.65;;;19.80;99.90;;;;;;4911136;29;20048;-83
2023/05/20 12:33:35;;;;;;;8.93;3.08;;;20.00;99.90;;;;;;4913665;29;20525;-82
2023/05/20 12:36:00;;;;;;;6.03;2.60;;;20.00;99.90;;;;;;4907636;29;20044;-81
2023/05/20 12:38:26;;;;;;;8.85;3.00;;;20.20;99.90;;;;;;4908679;29;20500;-78
2023/05/20 12:40:52;;;;;;;8.73;2.72;;;20.30;99.90;;;;;;4923003;29;20035;-81
2023/05/20 12:43:18;;;;;;;6.22;2.88;;;20.40;99.90;;;;;;4905828;29;20411;-79